KTUS/TUS METAR and TAF weather

Enter ICAO airport designator
Station Type Date Time Source
KTUS METAR 2020/04/07 15:53 UTC NOAA

KTUS 071553Z VRB04KT 10SM CLR 19/01 A3011 RMK AO2 SLP164 T01890006


Station Type Date Time Source
KTUS Decoded METAR 2020/04/07 15:53 UTC NOAA

TUCSON INTERNATIONAL AIRPORT , AZ, United States (KTUS) 32-08N 110-57W 786M
Apr 07, 2020 - 11:53 AM EDT / 2020.04.07 1553 UTC
Wind: Variable at 5 MPH (4 KT):0
Visibility: 10 mile(s):0
Sky conditions: clear
Temperature: 66.0 F (18.9 C)
Dew Point: 33.1 F (0.6 C)
Relative Humidity: 29%
Pressure (altimeter): 30.11 in. Hg (1019 hPa)
ob: KTUS 071553Z VRB04KT 10SM CLR 19/01 A3011 RMK AO2 SLP164 T01890006
cycle: 16

Station Type Date Time Source
KTUS TAF 2020/04/07 12:22 UTC NOAA

TAF KTUS 071120Z 0712/0812 17008KT P6SM FEW140
FM071700 20007KT P6SM SKC
FM072100 22010KT P6SM FEW090 SCT140
FM080700 14007KT P6SM SKC

Example: see airport list